Time;durP1;ratioP1;P1;durP2;ratioP2;P2;SDS_P1;SDS_P2;PMS_P1;PMS_P2;Temp;Humidity;BMP_temperature;BMP_pressure;BME280_temperature;BME280_humidity;BME280_pressure;Samples;Min_cycle;Max_cycle;Signal;HPM_P1;HPM_P2
2023/07/16 00:00:55;;;;;;;5.05;1.13;;;20.50;99.60;;;;;;4986055;27;45465;-69
2023/07/16 00:03:22;;;;;;;7.32;1.23;;;20.60;99.50;;;;;;4980130;28;45082;-69
2023/07/16 00:05:51;;;;;;;3.47;1.40;;;20.60;99.40;;;;;;4983295;28;46420;-70
2023/07/16 00:08:18;;;;;;;2.85;1.17;;;20.60;99.30;;;;;;4980717;28;45163;-70
2023/07/16 00:10:44;;;;;;;6.13;1.48;;;20.60;99.30;;;;;;4978998;28;45249;-71
2023/07/16 00:13:13;;;;;;;8.10;1.23;;;20.60;99.50;;;;;;4977950;28;45568;-70
2023/07/16 00:15:40;;;;;;;4.50;1.05;;;20.60;99.30;;;;;;4978933;28;47079;-69
2023/07/16 00:18:06;;;;;;;3.95;1.50;;;20.50;99.20;;;;;;4979605;28;45082;-69
2023/07/16 00:20:34;;;;;;;3.92;1.25;;;20.40;99.40;;;;;;4976433;28;45095;-70
2023/07/16 00:23:00;;;;;;;5.65;1.55;;;20.50;99.30;;;;;;4977836;28;45090;-70
2023/07/16 00:25:27;;;;;;;6.65;1.20;;;20.50;99.30;;;;;;4975405;28;47477;-70
2023/07/16 00:27:54;;;;;;;4.05;1.05;;;20.40;99.40;;;;;;4976633;28;45334;-70
2023/07/16 00:30:22;;;;;;;9.73;2.05;;;20.40;99.50;;;;;;4977337;28;45349;-70
2023/07/16 00:32:49;;;;;;;6.70;1.50;;;20.30;99.60;;;;;;4973331;28;45109;-70
2023/07/16 00:35:16;;;;;;;3.97;1.10;;;20.30;99.70;;;;;;4982979;28;45276;-69
2023/07/16 00:37:42;;;;;;;9.40;1.45;;;20.30;99.90;;;;;;4981176;28;45172;-70
2023/07/16 00:40:10;;;;;;;2.97;1.15;;;20.30;99.80;;;;;;4979341;28;45265;-70
2023/07/16 00:42:37;;;;;;;5.80;1.33;;;20.20;99.90;;;;;;4980461;28;45368;-69
2023/07/16 00:45:09;;;;;;;3.97;1.10;;;20.20;99.90;;;;;;4981601;28;46042;-69
2023/07/16 00:47:37;;;;;;;3.33;1.10;;;20.10;99.90;;;;;;4975223;28;45224;-69
2023/07/16 00:50:05;;;;;;;5.40;1.10;;;20.10;99.90;;;;;;4977852;28;45351;-70
2023/07/16 00:52:32;;;;;;;4.38;1.45;;;20.10;99.90;;;;;;4976029;28;45168;-69
2023/07/16 00:54:59;;;;;;;3.35;1.48;;;20.10;99.90;;;;;;4974230;28;45272;-70
2023/07/16 00:57:26;;;;;;;5.07;1.55;;;20.10;99.90;;;;;;4978652;28;45198;-70
2023/07/16 00:59:53;;;;;;;8.75;1.45;;;20.00;99.90;;;;;;4975401;28;45150;-69
2023/07/16 01:02:20;;;;;;;7.32;1.77;;;20.00;99.90;;;;;;4981734;28;45537;-70
2023/07/16 01:04:48;;;;;;;5.00;1.45;;;20.10;99.90;;;;;;4981842;28;47057;-69
2023/07/16 01:07:16;;;;;;;5.32;1.38;;;20.00;99.90;;;;;;4982639;28;45304;-70
2023/07/16 01:09:45;;;;;;;9.43;1.35;;;20.00;99.90;;;;;;4975270;28;45248;-70
2023/07/16 01:12:13;;;;;;;3.78;1.33;;;20.00;99.90;;;;;;4995361;28;45268;-71
2023/07/16 01:14:41;;;;;;;5.47;1.38;;;20.00;99.90;;;;;;5006923;28;45193;-69
2023/07/16 01:17:08;;;;;;;9.15;1.65;;;19.90;99.90;;;;;;4992224;28;45526;-69
2023/07/16 01:19:35;;;;;;;6.53;1.60;;;19.90;99.90;;;;;;4983235;28;45162;-69
2023/07/16 01:22:17;;;;;;;6.97;1.60;;;19.90;99.90;;;;;;5002117;28;45261;-70
2023/07/16 01:25:04;;;;;;;6.18;1.40;;;19.80;99.90;;;;;;4983860;28;47315;-70
2023/07/16 01:27:55;;;;;;;11.65;1.48;;;19.80;99.90;;;;;;4975642;28;45347;-70
2023/07/16 01:30:27;;;;;;;5.63;1.20;;;19.80;99.90;;;;;;4976705;28;45407;-70
2023/07/16 01:32:55;;;;;;;9.55;1.52;;;19.70;99.90;;;;;;4985826;28;45333;-70
2023/07/16 01:35:23;;;;;;;11.55;1.95;;;19.60;99.90;;;;;;4982608;28;46416;-70
2023/07/16 01:37:50;;;;;;;9.52;1.52;;;19.60;99.90;;;;;;4978366;28;45257;-69
2023/07/16 01:40:16;;;;;;;8.52;1.55;;;19.70;99.90;;;;;;4981612;28;45258;-69
2023/07/16 01:42:43;;;;;;;8.43;1.58;;;19.60;99.90;;;;;;4982660;28;45388;-69
2023/07/16 01:45:10;;;;;;;9.25;1.63;;;19.60;99.90;;;;;;5003187;28;46067;-70
2023/07/16 01:47:50;;;;;;;6.78;1.67;;;19.60;99.90;;;;;;4989757;28;45410;-69
2023/07/16 01:50:17;;;;;;;12.35;2.03;;;19.60;99.90;;;;;;4997937;28;45328;-69
2023/07/16 01:52:44;;;;;;;13.43;1.67;;;19.60;99.90;;;;;;4976283;28;45285;-69
2023/07/16 01:55:10;;;;;;;6.60;1.55;;;19.60;99.90;;;;;;4987385;28;46233;-70
2023/07/16 01:57:37;;;;;;;6.70;1.38;;;19.60;99.90;;;;;;4980334;28;45114;-69
2023/07/16 02:00:05;;;;;;;3.63;1.30;;;19.60;99.90;;;;;;4996342;28;45240;-69
2023/07/16 02:02:32;;;;;;;6.68;1.55;;;19.70;99.90;;;;;;4994561;28;45110;-70
2023/07/16 02:05:00;;;;;;;8.52;1.55;;;19.70;99.90;;;;;;4972918;28;48017;-69
2023/07/16 02:07:28;;;;;;;9.65;1.55;;;19.70;99.90;;;;;;4992090;28;45221;-70
2023/07/16 02:09:55;;;;;;;10.95;1.50;;;19.60;99.90;;;;;;4975456;28;45391;-69
2023/07/16 02:12:22;;;;;;;8.88;1.90;;;19.60;99.90;;;;;;4976210;28;45111;-70
2023/07/16 02:14:48;;;;;;;10.90;1.55;;;19.50;99.90;;;;;;4994926;28;46868;-69
2023/07/16 02:17:15;;;;;;;10.73;1.48;;;19.60;99.90;;;;;;4991249;28;45312;-70
2023/07/16 02:19:42;;;;;;;7.88;1.42;;;19.60;99.90;;;;;;4998811;28;45378;-70
2023/07/16 02:22:10;;;;;;;5.47;1.33;;;19.60;99.90;;;;;;4987910;28;45213;-70
2023/07/16 02:24:37;;;;;;;12.00;1.95;;;19.60;99.90;;;;;;4996190;28;46002;-70
2023/07/16 02:27:04;;;;;;;6.80;1.40;;;19.70;99.80;;;;;;4981641;28;45303;-69
2023/07/16 02:29:32;;;;;;;4.47;1.33;;;19.70;99.50;;;;;;4979104;28;45479;-69
2023/07/16 02:31:59;;;;;;;8.88;1.48;;;19.70;99.30;;;;;;4995152;28;45114;-70
2023/07/16 02:34:26;;;;;;;5.45;1.60;;;19.70;99.40;;;;;;4992770;28;46285;-69
2023/07/16 02:36:53;;;;;;;7.93;1.42;;;19.70;99.00;;;;;;4988366;28;45141;-69
2023/07/16 02:39:21;;;;;;;2.22;1.17;;;19.70;98.80;;;;;;4991033;28;45323;-70
2023/07/16 02:41:47;;;;;;;5.22;1.55;;;19.70;98.70;;;;;;4982559;28;45260;-70
2023/07/16 02:44:14;;;;;;;8.32;1.60;;;19.60;98.50;;;;;;4979263;28;47175;-70
2023/07/16 02:46:41;;;;;;;9.57;1.52;;;19.60;98.30;;;;;;4969307;28;45285;-70
2023/07/16 02:49:08;;;;;;;3.00;1.40;;;19.60;98.20;;;;;;4979735;28;45170;-71
2023/07/16 02:51:35;;;;;;;3.97;1.10;;;19.50;98.20;;;;;;4998569;28;45221;-69
2023/07/16 02:54:02;;;;;;;15.48;1.38;;;19.60;98.00;;;;;;5007153;28;46355;-71
2023/07/16 02:56:30;;;;;;;8.45;1.42;;;19.50;97.60;;;;;;4990098;28;45205;-70
2023/07/16 02:58:57;;;;;;;7.03;1.45;;;19.50;97.60;;;;;;4971915;28;45213;-70
2023/07/16 03:01:24;;;;;;;6.15;1.42;;;19.50;97.60;;;;;;5001408;28;45229;-71
2023/07/16 03:03:50;;;;;;;5.40;1.58;;;19.50;97.60;;;;;;4981047;28;47342;-69
2023/07/16 03:06:17;;;;;;;5.50;1.50;;;19.50;97.30;;;;;;4986034;28;45148;-70
2023/07/16 03:08:45;;;;;;;3.92;1.33;;;19.50;96.70;;;;;;4982586;28;45118;-70
2023/07/16 03:11:12;;;;;;;4.10;1.20;;;19.50;96.50;;;;;;4979077;28;45434;-70
2023/07/16 03:13:40;;;;;;;6.40;1.48;;;19.50;96.30;;;;;;4999429;28;48434;-70
2023/07/16 03:16:07;;;;;;;8.07;1.75;;;19.50;96.10;;;;;;4976658;28;45252;-70
2023/07/16 03:18:34;;;;;;;6.75;1.45;;;19.40;96.30;;;;;;4979623;28;45122;-71
2023/07/16 03:21:00;;;;;;;7.47;1.50;;;19.50;95.90;;;;;;5002226;28;45252;-70
2023/07/16 03:23:27;;;;;;;3.92;1.27;;;19.40;96.30;;;;;;4979140;28;47253;-69
2023/07/16 03:25:54;;;;;;;7.35;1.52;;;19.30;96.00;;;;;;4980883;28;45427;-70
2023/07/16 03:28:21;;;;;;;8.77;1.73;;;19.40;96.10;;;;;;5010058;28;45399;-69
2023/07/16 03:30:50;;;;;;;5.88;1.88;;;19.40;96.20;;;;;;5010637;27;45228;-70
2023/07/16 03:33:17;;;;;;;9.43;1.58;;;19.30;95.80;;;;;;4979077;28;46274;-69
2023/07/16 03:35:44;;;;;;;7.63;1.60;;;19.40;96.00;;;;;;4979934;28;45653;-70
2023/07/16 03:38:11;;;;;;;10.43;1.50;;;19.30;95.90;;;;;;4979555;28;45127;-70
2023/07/16 03:40:38;;;;;;;5.10;1.42;;;19.30;96.00;;;;;;4978678;28;45112;-70
2023/07/16 03:43:05;;;;;;;4.45;1.50;;;19.20;95.80;;;;;;4979296;28;46666;-70
2023/07/16 03:45:32;;;;;;;4.35;1.70;;;19.30;95.80;;;;;;4980039;28;45300;-70
2023/07/16 03:48:00;;;;;;;7.97;1.50;;;19.30;95.20;;;;;;4998131;28;45095;-69
2023/07/16 03:50:27;;;;;;;10.80;1.65;;;19.20;95.40;;;;;;4971586;27;45379;-69
2023/07/16 03:52:54;;;;;;;5.63;1.48;;;19.20;95.50;;;;;;4972265;28;47483;-69
2023/07/16 03:55:21;;;;;;;7.95;1.80;;;19.20;95.50;;;;;;5011159;28;45077;-70
2023/07/16 03:57:47;;;;;;;6.70;2.00;;;19.20;95.40;;;;;;4975918;28;45160;-69
2023/07/16 04:00:15;;;;;;;6.05;1.50;;;19.20;95.30;;;;;;4978661;28;45312;-70
2023/07/16 04:02:41;;;;;;;4.75;1.60;;;19.10;95.20;;;;;;4978841;28;45213;-69
2023/07/16 04:05:11;;;;;;;10.50;2.00;;;19.20;95.30;;;;;;4978683;28;45252;-71
2023/07/16 04:07:37;;;;;;;9.70;1.60;;;19.20;95.20;;;;;;4979582;28;45058;-70
2023/07/16 04:10:05;;;;;;;7.78;1.65;;;19.20;94.70;;;;;;4978115;28;45121;-70
2023/07/16 04:12:32;;;;;;;5.53;1.80;;;19.20;94.50;;;;;;4983925;28;47122;-69
2023/07/16 04:14:59;;;;;;;5.15;2.00;;;19.20;94.60;;;;;;4981910;28;45623;-69
2023/07/16 04:17:27;;;;;;;6.00;1.50;;;19.20;94.50;;;;;;4981507;28;45156;-70
2023/07/16 04:19:54;;;;;;;11.40;2.08;;;19.20;94.30;;;;;;4999746;28;45083;-70
2023/07/16 04:22:22;;;;;;;8.18;2.08;;;19.20;94.40;;;;;;4983657;28;46051;-69
2023/07/16 04:24:48;;;;;;;9.35;1.80;;;19.20;94.70;;;;;;4981871;28;45559;-70
2023/07/16 04:27:15;;;;;;;12.15;2.15;;;19.30;94.60;;;;;;4978904;28;45278;-70
2023/07/16 04:29:42;;;;;;;5.07;1.55;;;19.40;94.40;;;;;;4981554;28;45142;-70
2023/07/16 04:32:09;;;;;;;5.88;1.88;;;19.30;95.00;;;;;;4986480;28;47034;-70
2023/07/16 04:34:36;;;;;;;9.75;1.67;;;19.40;94.40;;;;;;4990046;28;45288;-71
2023/07/16 04:37:03;;;;;;;8.18;2.15;;;19.40;94.50;;;;;;4987606;28;45102;-71
2023/07/16 04:39:31;;;;;;;4.70;1.60;;;19.30;94.40;;;;;;5001020;28;45313;-70
2023/07/16 04:41:58;;;;;;;8.32;1.90;;;19.30;94.60;;;;;;4976105;28;46194;-69
2023/07/16 04:44:25;;;;;;;8.18;2.03;;;19.30;94.40;;;;;;4982207;28;45203;-70
2023/07/16 04:46:51;;;;;;;10.63;1.83;;;19.40;94.70;;;;;;4983212;28;45255;-69
2023/07/16 04:49:19;;;;;;;5.90;1.80;;;19.30;94.30;;;;;;4981109;28;45091;-70
2023/07/16 04:51:45;;;;;;;12.40;1.67;;;19.40;95.10;;;;;;4980451;28;45284;-69
2023/07/16 04:54:12;;;;;;;5.88;1.40;;;19.70;86.00;;;;;;4989993;28;45145;-69
2023/07/16 04:56:41;;;;;;;4.57;1.55;;;19.50;88.30;;;;;;4982451;28;45265;-69
2023/07/16 04:59:07;;;;;;;3.47;1.63;;;19.30;88.90;;;;;;4977129;28;45199;-70
2023/07/16 05:01:34;;;;;;;4.75;1.65;;;19.20;88.40;;;;;;4981722;28;46517;-69
2023/07/16 05:04:01;;;;;;;4.22;1.85;;;19.20;88.70;;;;;;4984765;28;45295;-70
2023/07/16 05:06:28;;;;;;;8.10;2.22;;;19.10;88.40;;;;;;4983514;28;45221;-69
2023/07/16 05:08:55;;;;;;;9.77;2.42;;;19.30;92.30;;;;;;4982658;28;45297;-69
2023/07/16 05:11:21;;;;;;;5.72;2.03;;;19.50;91.80;;;;;;4982216;28;47016;-70
2023/07/16 05:13:49;;;;;;;5.88;1.65;;;19.70;92.30;;;;;;4980727;28;45203;-69
2023/07/16 05:16:16;;;;;;;6.63;2.45;;;19.60;92.50;;;;;;4992898;28;45252;-69
2023/07/16 05:18:43;;;;;;;9.63;2.30;;;19.50;92.20;;;;;;4976322;28;45261;-69
2023/07/16 05:21:10;;;;;;;7.25;2.22;;;19.50;92.10;;;;;;4977726;28;46506;-69
2023/07/16 05:23:37;;;;;;;7.38;2.33;;;19.50;92.40;;;;;;4980145;28;45220;-69
2023/07/16 05:26:03;;;;;;;12.60;2.30;;;19.50;91.80;;;;;;4983727;28;45328;-69
2023/07/16 05:28:30;;;;;;;6.93;2.17;;;19.50;92.20;;;;;;4978747;28;45260;-69
2023/07/16 05:31:04;;;;;;;9.77;2.47;;;19.50;92.40;;;;;;4980875;28;45261;-69
2023/07/16 05:33:31;;;;;;;8.00;2.72;;;19.50;91.70;;;;;;4974815;28;45177;-69
2023/07/16 05:35:58;;;;;;;11.77;2.45;;;19.50;91.90;;;;;;4987343;28;45318;-71
2023/07/16 05:38:24;;;;;;;10.57;2.53;;;19.50;92.10;;;;;;4980385;28;45383;-69
2023/07/16 05:40:51;;;;;;;7.60;2.08;;;19.50;91.80;;;;;;4997372;28;46214;-69
2023/07/16 05:43:18;;;;;;;4.90;2.05;;;19.40;91.80;;;;;;4977768;28;45178;-69
2023/07/16 05:45:45;;;;;;;6.78;2.20;;;19.90;93.00;;;;;;5003700;28;45212;-69
2023/07/16 05:48:13;;;;;;;7.00;1.98;;;20.70;90.70;;;;;;5019870;28;45117;-70
2023/07/16 05:50:40;;;;;;;6.75;2.03;;;20.90;90.50;;;;;;4968650;28;47978;-69
2023/07/16 05:53:07;;;;;;;9.80;2.55;;;21.30;90.00;;;;;;4983421;28;45160;-69
2023/07/16 05:55:33;;;;;;;7.68;2.25;;;21.30;85.60;;;;;;5003614;28;45152;-69
2023/07/16 05:58:00;;;;;;;8.65;2.72;;;20.90;87.30;;;;;;4981797;28;45275;-69
2023/07/16 06:00:27;;;;;;;12.45;2.95;;;20.80;87.70;;;;;;4974160;28;47152;-69
2023/07/16 06:02:54;;;;;;;7.03;2.10;;;21.10;90.00;;;;;;4980899;28;45165;-70
2023/07/16 06:05:24;;;;;;;9.77;2.55;;;21.20;90.10;;;;;;4981429;28;45109;-70
2023/07/16 06:07:51;;;;;;;7.35;2.40;;;21.20;87.10;;;;;;4980496;28;45370;-70
2023/07/16 06:10:18;;;;;;;7.10;2.45;;;21.30;86.60;;;;;;4986842;28;46405;-70
2023/07/16 06:12:44;;;;;;;5.70;2.25;;;21.20;87.70;;;;;;4980693;28;45089;-70
2023/07/16 06:15:11;;;;;;;11.38;2.60;;;21.30;86.30;;;;;;4977550;28;45170;-69
2023/07/16 06:17:38;;;;;;;6.65;2.20;;;21.40;86.30;;;;;;5009973;28;45156;-69
2023/07/16 06:20:07;;;;;;;6.97;2.92;;;21.30;85.90;;;;;;4979141;28;45227;-70
2023/07/16 06:22:35;;;;;;;6.18;2.28;;;21.30;86.20;;;;;;4979199;28;45243;-69
2023/07/16 06:25:02;;;;;;;8.45;2.60;;;21.30;87.00;;;;;;4974312;28;45237;-69
2023/07/16 06:27:28;;;;;;;6.68;3.00;;;21.30;85.50;;;;;;4979519;28;45312;-70
2023/07/16 06:29:55;;;;;;;6.65;2.40;;;21.30;85.60;;;;;;4981093;28;46244;-69
2023/07/16 06:32:22;;;;;;;8.55;2.88;;;21.20;86.70;;;;;;4978537;28;45255;-69
2023/07/16 06:34:49;;;;;;;11.07;3.20;;;21.10;84.40;;;;;;4979965;28;45308;-69
2023/07/16 06:37:16;;;;;;;6.28;2.53;;;21.00;84.30;;;;;;4982612;28;45288;-68
2023/07/16 06:39:44;;;;;;;4.07;2.47;;;21.00;82.40;;;;;;4974180;28;46898;-70
2023/07/16 06:42:11;;;;;;;9.57;3.47;;;21.00;84.90;;;;;;4978286;28;45125;-69
2023/07/16 06:44:37;;;;;;;8.65;2.83;;;21.00;84.30;;;;;;4981321;28;45141;-69
2023/07/16 06:47:05;;;;;;;12.40;4.18;;;21.10;84.70;;;;;;5016286;28;45677;-69
2023/07/16 06:49:32;;;;;;;6.93;3.03;;;21.20;82.20;;;;;;4983943;28;48065;-69
2023/07/16 06:52:01;;;;;;;7.28;3.08;;;21.20;83.00;;;;;;5013878;28;45279;-70
2023/07/16 06:54:28;;;;;;;11.55;3.05;;;21.30;88.20;;;;;;5006575;28;45174;-70
2023/07/16 06:56:56;;;;;;;6.97;2.90;;;21.30;81.80;;;;;;5008630;28;45334;-70
2023/07/16 06:59:23;;;;;;;6.45;2.70;;;21.30;83.20;;;;;;4979580;28;45216;-70
2023/07/16 07:01:50;;;;;;;7.40;3.00;;;21.40;82.60;;;;;;4981132;28;45314;-71
2023/07/16 07:04:17;;;;;;;8.63;3.20;;;21.50;81.20;;;;;;4981425;28;45109;-70
2023/07/16 07:06:43;;;;;;;8.63;2.60;;;21.50;83.10;;;;;;4976971;28;45207;-71
2023/07/16 07:09:10;;;;;;;5.05;2.85;;;21.60;81.00;;;;;;4975091;28;47945;-71
2023/07/16 07:11:37;;;;;;;11.57;3.22;;;21.60;81.20;;;;;;4980311;28;45272;-71
2023/07/16 07:14:05;;;;;;;8.70;3.05;;;21.50;82.60;;;;;;4981489;28;45269;-70
2023/07/16 07:16:32;;;;;;;11.40;3.05;;;21.50;81.00;;;;;;4973304;28;45322;-70
2023/07/16 07:18:59;;;;;;;7.88;3.40;;;21.50;81.80;;;;;;4978479;28;46232;-69
2023/07/16 07:21:26;;;;;;;10.18;3.42;;;21.40;80.00;;;;;;5010061;28;45421;-70
2023/07/16 07:23:53;;;;;;;6.53;3.00;;;21.10;83.10;;;;;;4989453;28;45288;-70
2023/07/16 07:26:19;;;;;;;10.65;3.88;;;21.30;82.70;;;;;;4975736;28;45346;-71
2023/07/16 07:28:46;;;;;;;12.73;3.85;;;21.40;79.50;;;;;;4974173;28;47196;-71
2023/07/16 07:31:14;;;;;;;6.78;3.17;;;21.20;79.70;;;;;;4970486;28;45441;-70
2023/07/16 07:33:41;;;;;;;7.80;2.90;;;21.20;79.20;;;;;;4978829;28;45281;-71
2023/07/16 07:36:08;;;;;;;9.55;3.03;;;21.10;81.80;;;;;;5013821;28;45175;-71
2023/07/16 07:38:34;;;;;;;7.20;3.00;;;21.30;80.70;;;;;;4976061;28;46385;-70
2023/07/16 07:41:02;;;;;;;9.65;2.90;;;21.50;80.70;;;;;;4979793;28;45200;-71
2023/07/16 07:43:28;;;;;;;7.85;2.95;;;21.50;81.40;;;;;;4990755;28;45224;-70
2023/07/16 07:45:55;;;;;;;8.63;3.13;;;21.60;79.60;;;;;;4992274;28;45197;-69
2023/07/16 07:48:23;;;;;;;7.55;3.17;;;21.50;79.70;;;;;;4982294;28;45469;-70
2023/07/16 07:50:50;;;;;;;14.18;3.53;;;21.40;79.50;;;;;;4982719;28;45458;-70
2023/07/16 07:53:18;;;;;;;14.07;3.10;;;21.30;79.40;;;;;;4981603;28;45292;-72
2023/07/16 07:55:45;;;;;;;8.68;3.28;;;21.20;86.10;;;;;;4982615;28;45272;-70
2023/07/16 07:58:13;;;;;;;6.82;2.85;;;21.20;82.50;;;;;;4994556;28;45180;-70
2023/07/16 08:00:40;;;;;;;9.85;3.08;;;21.20;82.40;;;;;;4982114;28;45225;-69
2023/07/16 08:03:06;;;;;;;9.95;3.83;;;21.10;82.90;;;;;;4976588;28;45339;-69
2023/07/16 08:05:35;;;;;;;8.52;2.97;;;21.10;83.40;;;;;;4977001;28;45327;-70
2023/07/16 08:08:01;;;;;;;12.05;3.42;;;21.40;87.10;;;;;;4977739;28;48254;-70
2023/07/16 08:10:28;;;;;;;8.57;2.80;;;21.40;85.20;;;;;;4982226;28;45258;-71
2023/07/16 08:12:55;;;;;;;9.07;2.70;;;21.40;84.60;;;;;;4981820;28;45277;-70
2023/07/16 08:15:22;;;;;;;7.80;2.80;;;21.40;82.10;;;;;;4981944;28;45170;-70
2023/07/16 08:17:49;;;;;;;9.23;3.08;;;21.50;84.50;;;;;;4980923;28;47646;-70
2023/07/16 08:20:15;;;;;;;7.10;2.95;;;21.40;85.60;;;;;;4972750;28;45287;-70
2023/07/16 08:22:44;;;;;;;7.88;2.83;;;21.50;83.50;;;;;;4975840;28;45322;-70
2023/07/16 08:25:11;;;;;;;6.18;2.63;;;21.60;83.60;;;;;;4986641;28;45356;-70
2023/07/16 08:27:38;;;;;;;6.97;2.97;;;21.50;86.00;;;;;;5013939;28;46933;-70
2023/07/16 08:30:06;;;;;;;7.60;2.92;;;21.50;83.00;;;;;;4975429;28;45147;-70
2023/07/16 08:32:33;;;;;;;7.07;2.78;;;21.60;83.10;;;;;;4982894;28;45236;-69
2023/07/16 08:35:00;;;;;;;10.32;3.13;;;21.60;81.20;;;;;;5021420;28;45272;-70
2023/07/16 08:37:27;;;;;;;9.48;2.92;;;21.60;84.70;;;;;;4975788;28;47296;-70
2023/07/16 08:39:55;;;;;;;7.85;3.08;;;21.60;83.10;;;;;;4982099;28;45201;-70
2023/07/16 08:42:22;;;;;;;8.18;3.00;;;21.50;79.50;;;;;;4983152;28;45061;-70
2023/07/16 08:44:50;;;;;;;10.73;3.10;;;21.50;83.70;;;;;;4979166;28;45292;-71
2023/07/16 08:47:17;;;;;;;7.38;2.90;;;21.50;78.90;;;;;;4981822;28;47621;-70
2023/07/16 08:49:54;;;;;;;11.57;2.60;;;21.60;84.90;;;;;;4981752;28;45276;-71
2023/07/16 08:52:21;;;;;;;7.72;3.22;;;21.50;80.80;;;;;;4972609;28;45304;-70
2023/07/16 08:54:48;;;;;;;8.25;2.90;;;21.50;78.10;;;;;;4967908;28;45325;-70
2023/07/16 08:57:16;;;;;;;8.85;2.72;;;21.60;83.70;;;;;;4973647;28;46385;-71
2023/07/16 08:59:44;;;;;;;8.90;2.78;;;21.50;79.50;;;;;;4969007;28;45079;-70
2023/07/16 09:02:11;;;;;;;9.80;2.97;;;21.50;85.60;;;;;;4973124;28;45090;-70
2023/07/16 09:04:37;;;;;;;7.78;2.75;;;21.50;81.70;;;;;;4968148;28;45547;-70
2023/07/16 09:07:05;;;;;;;7.55;2.65;;;21.60;82.30;;;;;;5016102;28;46055;-70
2023/07/16 09:09:32;;;;;;;8.00;3.08;;;21.70;85.40;;;;;;4978216;28;45241;-70
2023/07/16 09:11:59;;;;;;;9.05;2.78;;;21.70;84.70;;;;;;4969222;28;45222;-70
2023/07/16 09:14:27;;;;;;;7.35;2.65;;;21.80;82.10;;;;;;4981779;28;45399;-70
2023/07/16 09:16:54;;;;;;;10.73;2.83;;;21.80;79.80;;;;;;4981132;28;46207;-70
2023/07/16 09:19:22;;;;;;;8.10;3.08;;;21.80;84.50;;;;;;4979856;28;45155;-72
2023/07/16 09:21:50;;;;;;;9.40;2.88;;;21.90;78.20;;;;;;4975650;28;45351;-70
2023/07/16 09:24:18;;;;;;;6.85;2.55;;;21.90;81.80;;;;;;5012093;28;45249;-71
2023/07/16 09:26:51;;;;;;;7.15;3.00;;;21.90;82.90;;;;;;5015653;28;45249;-70
2023/07/16 09:29:18;;;;;;;11.85;3.00;;;22.00;81.30;;;;;;4971938;28;45216;-71
2023/07/16 09:31:56;;;;;;;9.52;2.80;;;22.00;78.80;;;;;;4975041;28;45202;-70
2023/07/16 09:34:23;;;;;;;6.82;2.92;;;21.80;77.60;;;;;;4981719;28;45365;-70
2023/07/16 09:36:50;;;;;;;7.00;2.95;;;21.70;79.70;;;;;;4981228;28;45116;-70
2023/07/16 09:39:19;;;;;;;8.45;3.28;;;21.80;80.80;;;;;;4984832;28;45148;-70
2023/07/16 09:41:46;;;;;;;9.75;3.47;;;21.80;78.20;;;;;;4991876;28;45280;-71
2023/07/16 09:44:14;;;;;;;10.57;3.20;;;21.70;83.40;;;;;;4977775;28;45343;-70
2023/07/16 09:46:41;;;;;;;7.13;2.65;;;21.80;79.00;;;;;;4980783;28;48183;-70
2023/07/16 09:49:10;;;;;;;10.57;2.75;;;21.80;79.90;;;;;;4980811;28;45105;-70
2023/07/16 09:51:38;;;;;;;9.93;3.10;;;21.90;82.80;;;;;;5003989;28;45205;-70
2023/07/16 09:54:06;;;;;;;8.00;2.70;;;22.00;80.10;;;;;;4977160;28;45465;-70
2023/07/16 09:56:38;;;;;;;8.73;3.15;;;22.00;81.90;;;;;;4969679;28;48368;-70
2023/07/16 09:59:09;;;;;;;6.70;2.83;;;22.00;81.90;;;;;;4967097;28;45486;-70
2023/07/16 10:01:38;;;;;;;6.72;2.45;;;21.90;78.20;;;;;;4980764;28;45152;-70
2023/07/16 10:04:14;;;;;;;6.22;2.55;;;22.00;83.40;;;;;;4981868;28;45467;-70
2023/07/16 10:06:50;;;;;;;7.75;2.95;;;22.10;85.00;;;;;;4981567;28;46294;-69
2023/07/16 10:09:33;;;;;;;11.50;3.00;;;22.20;80.90;;;;;;4962964;28;45196;-70
2023/07/16 10:12:18;;;;;;;6.38;2.50;;;22.30;76.20;;;;;;4961932;28;45071;-72
2023/07/16 10:14:47;;;;;;;4.50;2.42;;;22.20;73.30;;;;;;4976910;28;45152;-70
2023/07/16 10:17:15;;;;;;;5.97;2.72;;;22.30;76.10;;;;;;4960360;28;47753;-70
2023/07/16 10:19:51;;;;;;;6.47;2.42;;;22.40;78.00;;;;;;4965095;28;45181;-71
2023/07/16 10:22:19;;;;;;;7.35;2.60;;;22.30;74.60;;;;;;4979844;28;45320;-71
2023/07/16 10:24:52;;;;;;;6.65;2.50;;;22.30;76.20;;;;;;4968567;28;45433;-70
2023/07/16 10:27:29;;;;;;;5.55;2.55;;;22.40;81.20;;;;;;4963133;28;45548;-69
2023/07/16 10:29:56;;;;;;;6.78;2.47;;;22.40;78.50;;;;;;4975144;28;45222;-70
2023/07/16 10:32:24;;;;;;;5.70;2.58;;;22.40;75.70;;;;;;4970925;28;45229;-70
2023/07/16 10:34:52;;;;;;;7.53;3.00;;;22.40;76.80;;;;;;4975063;28;45271;-70
2023/07/16 10:37:19;;;;;;;4.47;2.30;;;22.40;76.80;;;;;;4970904;28;46596;-69
2023/07/16 10:39:48;;;;;;;6.15;2.60;;;22.40;82.00;;;;;;4979905;28;45186;-69
2023/07/16 10:42:14;;;;;;;5.95;2.30;;;22.40;73.50;;;;;;4980122;28;45326;-70
2023/07/16 10:44:41;;;;;;;5.25;2.28;;;22.50;73.80;;;;;;4973758;28;45166;-69
2023/07/16 10:47:09;;;;;;;8.15;2.90;;;22.50;76.20;;;;;;4968773;28;47216;-70
2023/07/16 10:49:36;;;;;;;7.90;2.67;;;22.50;74.50;;;;;;4979874;28;45402;-69
2023/07/16 10:52:05;;;;;;;6.38;2.58;;;22.50;76.50;;;;;;5009377;28;45214;-69
2023/07/16 10:54:31;;;;;;;7.93;2.22;;;22.50;74.00;;;;;;4982984;28;45504;-69
2023/07/16 10:56:58;;;;;;;5.18;2.60;;;22.50;80.40;;;;;;4980172;28;47974;-69
2023/07/16 10:59:25;;;;;;;4.07;2.25;;;22.40;81.10;;;;;;4987135;28;45321;-69
2023/07/16 11:01:52;;;;;;;5.65;2.38;;;22.40;81.70;;;;;;4986002;28;45075;-69
2023/07/16 11:04:19;;;;;;;10.23;2.78;;;22.40;78.70;;;;;;4969101;28;45159;-70
2023/07/16 11:06:45;;;;;;;7.57;2.60;;;22.50;73.40;;;;;;4977360;28;48521;-69
2023/07/16 11:09:14;;;;;;;6.15;2.55;;;22.50;76.20;;;;;;4976567;28;45134;-70
2023/07/16 11:11:41;;;;;;;8.98;2.72;;;22.60;74.90;;;;;;4980247;28;45205;-70
2023/07/16 11:14:08;;;;;;;5.75;2.58;;;22.50;68.70;;;;;;5014069;28;45261;-69
2023/07/16 11:16:36;;;;;;;6.72;2.80;;;22.50;74.50;;;;;;5002515;28;48347;-69
2023/07/16 11:19:05;;;;;;;6.88;2.30;;;22.50;75.10;;;;;;5002136;28;45256;-69
2023/07/16 11:21:31;;;;;;;7.50;2.72;;;22.60;73.30;;;;;;4984214;28;45226;-69
2023/07/16 11:24:09;;;;;;;9.45;3.38;;;22.60;74.70;;;;;;4974792;28;45051;-69
2023/07/16 11:26:37;;;;;;;5.25;2.38;;;22.60;74.60;;;;;;4982687;28;45338;-69
2023/07/16 11:29:14;;;;;;;4.65;2.28;;;22.60;76.10;;;;;;4982421;28;45250;-69
2023/07/16 11:31:41;;;;;;;8.02;2.60;;;22.60;74.30;;;;;;4981908;28;45246;-69
2023/07/16 11:34:08;;;;;;;4.03;2.05;;;22.70;74.10;;;;;;4983057;28;45429;-69
2023/07/16 11:36:35;;;;;;;7.88;2.30;;;22.70;72.50;;;;;;4982723;28;47050;-70
2023/07/16 11:39:04;;;;;;;5.55;2.38;;;22.70;72.60;;;;;;4982976;28;45122;-69
2023/07/16 11:41:32;;;;;;;5.18;2.00;;;22.60;77.70;;;;;;4982493;28;45121;-69
2023/07/16 11:44:02;;;;;;;6.72;2.45;;;22.60;75.90;;;;;;4980960;28;45146;-69
2023/07/16 11:46:33;;;;;;;5.90;2.80;;;22.60;77.00;;;;;;5013952;28;45166;-69
2023/07/16 11:49:00;;;;;;;5.10;2.78;;;22.70;75.90;;;;;;4982845;28;45162;-70
2023/07/16 11:51:27;;;;;;;5.82;2.30;;;22.70;75.90;;;;;;4982340;28;45197;-70
2023/07/16 11:53:56;;;;;;;6.38;2.80;;;22.70;77.10;;;;;;4983056;28;45229;-69
2023/07/16 11:56:23;;;;;;;9.13;2.72;;;22.70;70.40;;;;;;4982380;28;46620;-69
2023/07/16 11:58:50;;;;;;;6.43;2.33;;;22.70;68.10;;;;;;4975790;28;45318;-69
2023/07/16 12:01:18;;;;;;;4.28;2.05;;;22.70;72.80;;;;;;5016047;28;45335;-69
2023/07/16 12:03:45;;;;;;;6.10;2.20;;;22.70;76.90;;;;;;4982586;28;45074;-68
2023/07/16 12:06:12;;;;;;;7.97;2.10;;;22.70;75.60;;;;;;4982153;28;46355;-69
2023/07/16 12:08:39;;;;;;;10.32;2.60;;;22.70;66.80;;;;;;5008858;28;45217;-69
2023/07/16 12:11:06;;;;;;;7.68;2.65;;;22.60;67.70;;;;;;4982099;28;45161;-69
2023/07/16 12:13:33;;;;;;;6.63;2.85;;;22.60;70.70;;;;;;4979532;28;46457;-69
2023/07/16 12:15:59;;;;;;;6.72;2.47;;;22.70;69.60;;;;;;4975712;28;45275;-69
2023/07/16 12:18:29;;;;;;;5.90;2.38;;;22.70;68.90;;;;;;4982047;28;45278;-69
2023/07/16 12:20:56;;;;;;;5.43;2.33;;;22.70;69.40;;;;;;4982300;28;45122;-69
2023/07/16 12:23:23;;;;;;;6.72;2.35;;;22.80;68.20;;;;;;4982109;28;45409;-69
2023/07/16 12:25:51;;;;;;;7.65;2.30;;;22.70;67.10;;;;;;4981379;28;47132;-69
2023/07/16 12:28:18;;;;;;;9.02;2.70;;;22.80;72.00;;;;;;4981096;28;45172;-69
2023/07/16 12:30:44;;;;;;;7.30;2.40;;;22.80;70.10;;;;;;5010333;28;45274;-69
2023/07/16 12:33:11;;;;;;;11.25;2.05;;;22.80;68.60;;;;;;4978523;28;45375;-69
2023/07/16 12:35:39;;;;;;;7.20;2.65;;;22.80;67.70;;;;;;4973622;28;48066;-69
2023/07/16 12:38:06;;;;;;;6.63;2.50;;;22.80;69.20;;;;;;5012125;28;45304;-68
2023/07/16 12:40:39;;;;;;;7.13;2.50;;;22.90;65.40;;;;;;4968452;28;45308;-70
2023/07/16 12:43:06;;;;;;;8.90;2.53;;;22.90;69.10;;;;;;4982182;28;45259;-69
2023/07/16 12:45:33;;;;;;;7.85;2.30;;;22.90;67.20;;;;;;5013054;28;46495;-69
2023/07/16 12:47:59;;;;;;;8.13;2.40;;;22.90;66.60;;;;;;5009119;28;45379;-69